createdAt,value
2023-04-30T00:01:26.570Z,10.90
2023-04-30T00:03:55.499Z,10.86
2023-04-30T00:06:25.549Z,10.83
2023-04-30T00:08:55.319Z,10.78
2023-04-30T00:11:23.776Z,10.72
2023-04-30T00:13:53.667Z,10.66
2023-04-30T00:16:22.134Z,10.61
2023-04-30T00:18:50.848Z,10.55
2023-04-30T00:21:19.411Z,10.48
2023-04-30T00:23:48.050Z,10.44
2023-04-30T00:26:16.824Z,10.39
2023-04-30T00:28:48.637Z,10.35
2023-04-30T00:31:18.497Z,10.34
2023-04-30T00:33:46.987Z,10.33
2023-04-30T00:36:15.563Z,10.29
2023-04-30T00:38:44.110Z,10.25
2023-04-30T00:41:12.579Z,10.19
2023-04-30T00:43:41.846Z,10.12
2023-04-30T00:46:10.306Z,10.07
2023-04-30T00:48:40.546Z,10.04
2023-04-30T00:51:09.281Z,10.01
2023-04-30T00:53:41.130Z,9.96
2023-04-30T00:56:10.847Z,9.95
2023-04-30T00:58:39.409Z,9.92
2023-04-30T01:01:08.391Z,9.87
2023-04-30T01:03:37.108Z,9.83
2023-04-30T01:06:07.282Z,9.75
2023-04-30T01:08:36.492Z,9.66
2023-04-30T01:11:18.645Z,9.61
2023-04-30T01:13:51.947Z,9.55
2023-04-30T01:16:25.057Z,9.49
2023-04-30T01:18:59.041Z,9.44
2023-04-30T01:21:31.139Z,9.37
2023-04-30T01:24:26.235Z,9.32
2023-04-30T01:27:05.960Z,9.28
2023-04-30T01:29:37.707Z,9.26
2023-04-30T01:32:06.024Z,9.22
2023-04-30T01:34:34.944Z,9.20
2023-04-30T01:37:16.838Z,9.20
2023-04-30T01:40:04.500Z,9.19
2023-04-30T01:42:41.991Z,9.17
2023-04-30T01:45:23.799Z,9.15
2023-04-30T01:47:58.045Z,9.17
2023-04-30T01:50:33.033Z,9.20
2023-04-30T01:53:04.893Z,9.23
2023-04-30T01:55:37.880Z,9.26
2023-04-30T01:58:08.410Z,9.29
2023-04-30T02:00:38.167Z,9.31
2023-04-30T02:03:07.026Z,9.36
2023-04-30T02:05:36.301Z,9.40
2023-04-30T02:08:05.537Z,9.41
2023-04-30T02:10:35.721Z,9.41
2023-04-30T02:13:04.596Z,9.45
2023-04-30T02:15:33.226Z,9.49
2023-04-30T02:18:03.262Z,9.56
2023-04-30T02:20:32.340Z,9.58
2023-04-30T02:23:00.845Z,9.62
2023-04-30T02:25:29.933Z,9.61
2023-04-30T02:27:58.881Z,9.63
2023-04-30T02:30:27.307Z,9.61
2023-04-30T02:32:56.024Z,9.62
2023-04-30T02:35:26.666Z,9.63
2023-04-30T02:37:55.200Z,9.61
2023-04-30T02:40:23.624Z,9.56
2023-04-30T02:42:54.205Z,9.58
2023-04-30T02:45:22.804Z,9.59
2023-04-30T02:47:51.581Z,9.61
2023-04-30T02:50:20.020Z,9.62
2023-04-30T02:52:50.200Z,9.64
2023-04-30T02:55:18.771Z,9.64
2023-04-30T02:57:47.687Z,9.65
2023-04-30T03:00:16.613Z,9.68
2023-04-30T03:02:45.332Z,9.70
2023-04-30T03:05:15.984Z,9.74
2023-04-30T03:07:44.770Z,9.78
2023-04-30T03:10:14.898Z,9.81
2023-04-30T03:12:43.429Z,9.86
2023-04-30T03:15:12.513Z,9.90
2023-04-30T03:17:42.117Z,9.95
2023-04-30T03:20:12.915Z,10.00
2023-04-30T03:22:42.026Z,10.04
2023-04-30T03:25:11.821Z,10.07
2023-04-30T03:27:41.808Z,10.09
2023-04-30T03:30:10.952Z,10.09
2023-04-30T03:32:42.128Z,10.15
2023-04-30T03:35:11.529Z,10.20
2023-04-30T03:37:40.051Z,10.29
2023-04-30T03:40:09.890Z,10.39
2023-04-30T03:42:38.433Z,10.50
2023-04-30T03:45:09.596Z,10.62
2023-04-30T03:47:38.415Z,10.74
2023-04-30T03:50:08.380Z,10.89
2023-04-30T03:52:37.835Z,11.01
2023-04-30T03:55:07.749Z,11.17
2023-04-30T03:57:36.620Z,11.28
2023-04-30T04:00:08.913Z,11.34
2023-04-30T04:02:42.293Z,11.45
2023-04-30T04:05:12.871Z,11.51
2023-04-30T04:07:41.493Z,11.55
2023-04-30T04:10:10.511Z,11.61
2023-04-30T04:12:39.459Z,11.66
2023-04-30T04:15:11.178Z,11.69
2023-04-30T04:17:40.037Z,11.73
2023-04-30T04:20:11.901Z,11.77
2023-04-30T04:22:42.734Z,11.79
2023-04-30T04:25:12.147Z,11.82
2023-04-30T04:27:42.405Z,11.86
2023-04-30T04:30:14.140Z,11.86
2023-04-30T04:32:46.834Z,11.90
2023-04-30T04:35:16.079Z,11.92
2023-04-30T04:37:45.336Z,11.93
2023-04-30T04:40:14.293Z,11.97
2023-04-30T04:42:43.350Z,11.96
2023-04-30T04:45:16.403Z,11.95
2023-04-30T04:47:45.086Z,11.93
2023-04-30T04:50:15.040Z,11.90
2023-04-30T04:52:43.744Z,11.88
2023-04-30T04:55:13.502Z,11.85
2023-04-30T04:57:42.762Z,11.84
2023-04-30T05:00:12.976Z,11.82
2023-04-30T05:02:43.036Z,11.77
2023-04-30T05:05:12.337Z,11.75
2023-04-30T05:07:41.509Z,11.72
2023-04-30T05:10:11.629Z,11.67
2023-04-30T05:12:40.298Z,11.68
2023-04-30T05:15:09.798Z,11.70
2023-04-30T05:17:38.416Z,11.68
2023-04-30T05:20:09.993Z,11.62
2023-04-30T05:22:38.490Z,11.60
2023-04-30T05:25:07.939Z,11.55
2023-04-30T05:27:37.499Z,11.50
2023-04-30T05:30:06.843Z,11.45
2023-04-30T05:32:35.645Z,11.40
2023-04-30T05:35:04.752Z,11.34
2023-04-30T05:37:35.303Z,11.28
2023-04-30T05:40:04.180Z,11.21
2023-04-30T05:42:32.977Z,11.17
2023-04-30T05:45:02.226Z,11.09
2023-04-30T05:47:31.335Z,11.01
2023-04-30T05:49:59.966Z,10.95
2023-04-30T05:52:28.519Z,10.91
2023-04-30T05:54:58.503Z,10.90
2023-04-30T05:57:27.239Z,10.85
2023-04-30T05:59:56.118Z,10.78
2023-04-30T06:02:25.046Z,10.72
2023-04-30T06:04:53.950Z,10.69
2023-04-30T06:07:23.252Z,10.65
2023-04-30T06:09:52.115Z,10.60
2023-04-30T06:12:22.137Z,10.56
2023-04-30T06:14:51.432Z,10.52
2023-04-30T06:17:20.069Z,10.48
2023-04-30T06:19:48.427Z,10.47
2023-04-30T06:22:16.944Z,10.45
2023-04-30T06:24:45.880Z,10.43
2023-04-30T06:27:14.592Z,10.47
2023-04-30T06:29:46.449Z,10.50
2023-04-30T06:32:15.044Z,10.59
2023-04-30T06:34:43.912Z,10.66
2023-04-30T06:37:12.592Z,10.69
2023-04-30T06:39:40.908Z,10.67
2023-04-30T06:42:09.421Z,10.68
2023-04-30T06:44:37.975Z,10.66
2023-04-30T06:47:07.930Z,10.62
2023-04-30T06:49:36.640Z,10.59
2023-04-30T06:52:05.457Z,10.62
2023-04-30T06:54:34.101Z,10.68
2023-04-30T06:57:03.813Z,10.79
2023-04-30T06:59:32.876Z,10.87
2023-04-30T07:02:01.537Z,10.91
2023-04-30T07:04:31.561Z,11.00
2023-04-30T07:07:02.308Z,11.09
2023-04-30T07:09:31.044Z,11.23
2023-04-30T07:11:59.857Z,11.34
2023-04-30T07:14:28.590Z,11.44
2023-04-30T07:16:57.150Z,11.51
2023-04-30T07:19:27.152Z,11.60
2023-04-30T07:21:57.264Z,11.74
2023-04-30T07:24:25.930Z,11.83
2023-04-30T07:26:54.343Z,11.86
2023-04-30T07:29:23.156Z,11.88
2023-04-30T07:31:51.875Z,11.93
2023-04-30T07:34:20.357Z,11.98
2023-04-30T07:36:49.672Z,12.09
2023-04-30T07:39:19.934Z,12.32
2023-04-30T07:41:48.844Z,12.54
2023-04-30T07:44:18.163Z,12.73
2023-04-30T07:46:46.812Z,12.77
2023-04-30T07:49:15.928Z,12.69
2023-04-30T07:51:44.561Z,12.45
2023-04-30T07:54:12.998Z,12.24
2023-04-30T07:56:42.943Z,12.04
2023-04-30T07:59:11.498Z,11.93
2023-04-30T08:01:40.167Z,11.78
2023-04-30T08:04:09.776Z,11.68
2023-04-30T08:06:38.346Z,11.66
2023-04-30T08:09:06.990Z,11.64
2023-04-30T08:11:35.595Z,11.62
2023-04-30T08:14:07.110Z,11.59
2023-04-30T08:16:37.252Z,11.65
2023-04-30T08:19:05.984Z,11.73
2023-04-30T08:21:34.851Z,12.07
2023-04-30T08:24:03.701Z,12.49
2023-04-30T08:26:32.191Z,12.85
2023-04-30T08:29:00.897Z,13.14
2023-04-30T08:31:35.425Z,13.14
2023-04-30T08:34:04.824Z,13.09
2023-04-30T08:36:33.278Z,13.02
2023-04-30T08:39:02.935Z,12.95
2023-04-30T08:41:35.182Z,12.83
2023-04-30T08:44:08.180Z,12.72
2023-04-30T08:46:40.170Z,12.67
2023-04-30T08:49:08.858Z,12.86
2023-04-30T08:51:38.206Z,13.74
2023-04-30T08:54:06.825Z,14.72
2023-04-30T08:56:35.479Z,15.54
2023-04-30T08:59:03.944Z,15.61
2023-04-30T09:01:32.627Z,16.19
2023-04-30T09:04:04.957Z,16.42
2023-04-30T09:06:34.009Z,16.27
2023-04-30T09:09:11.754Z,15.94
2023-04-30T09:11:40.871Z,15.56
2023-04-30T09:14:09.905Z,15.14
2023-04-30T09:16:49.082Z,15.46
2023-04-30T09:19:29.642Z,16.11
2023-04-30T09:21:58.541Z,16.40
2023-04-30T09:24:27.297Z,16.54
2023-04-30T09:26:55.831Z,16.66
2023-04-30T09:29:37.499Z,16.84
2023-04-30T09:32:10.469Z,16.70
2023-04-30T09:34:40.981Z,16.74
2023-04-30T09:37:09.571Z,16.58
2023-04-30T09:39:49.829Z,16.78
2023-04-30T09:42:19.268Z,17.22
2023-04-30T09:44:49.036Z,17.01
2023-04-30T09:47:20.049Z,16.55
2023-04-30T09:49:53.559Z,16.51
2023-04-30T09:52:22.793Z,16.73
2023-04-30T09:54:51.667Z,16.33
2023-04-30T09:57:24.789Z,16.73
2023-04-30T09:59:54.918Z,17.17
2023-04-30T10:02:24.961Z,17.41
2023-04-30T10:04:59.499Z,17.91
2023-04-30T10:07:35.634Z,18.17
2023-04-30T10:10:08.929Z,18.49
2023-04-30T10:12:45.286Z,18.60
2023-04-30T10:15:19.063Z,18.72
2023-04-30T10:17:52.107Z,18.77
2023-04-30T10:20:24.761Z,18.84
2023-04-30T10:22:57.552Z,19.08
2023-04-30T10:25:27.180Z,19.19
2023-04-30T10:27:56.094Z,19.12
2023-04-30T10:30:25.093Z,19.13
2023-04-30T10:33:08.211Z,19.21
2023-04-30T10:35:48.353Z,19.40
2023-04-30T10:38:23.320Z,19.75
2023-04-30T10:40:52.164Z,19.95
2023-04-30T10:43:22.325Z,19.99
2023-04-30T10:45:51.631Z,19.71
2023-04-30T10:48:26.052Z,19.95
2023-04-30T10:50:58.016Z,20.05
2023-04-30T10:53:29.124Z,19.92
2023-04-30T10:56:00.771Z,19.93
2023-04-30T10:58:34.316Z,20.05
2023-04-30T11:01:08.752Z,20.20
2023-04-30T11:03:38.568Z,20.75
2023-04-30T11:06:13.597Z,20.87
2023-04-30T11:08:46.666Z,20.58
2023-04-30T11:11:21.463Z,20.44
2023-04-30T11:14:02.886Z,20.43
2023-04-30T11:16:32.070Z,20.60
2023-04-30T11:19:09.482Z,20.94
2023-04-30T11:21:43.213Z,20.69
2023-04-30T11:24:11.939Z,20.88
2023-04-30T11:27:07.189Z,20.62
2023-04-30T11:29:36.630Z,20.57
2023-04-30T11:32:09.256Z,20.49
2023-04-30T11:34:39.367Z,20.16
2023-04-30T11:37:13.477Z,19.76
2023-04-30T11:39:43.913Z,19.69
2023-04-30T11:42:18.133Z,19.98
2023-04-30T11:44:47.231Z,20.21
2023-04-30T11:47:17.447Z,20.12
2023-04-30T11:49:45.967Z,20.06
2023-04-30T11:52:16.282Z,20.84
2023-04-30T11:54:46.117Z,20.88
2023-04-30T11:57:15.190Z,20.76
2023-04-30T11:59:44.029Z,20.87
2023-04-30T12:02:16.780Z,20.93
2023-04-30T12:04:47.302Z,20.62
2023-04-30T12:07:17.497Z,20.32
2023-04-30T12:09:56.683Z,20.22
2023-04-30T12:12:29.874Z,20.05
2023-04-30T12:14:59.507Z,19.90
2023-04-30T12:17:35.193Z,19.60
2023-04-30T12:20:05.312Z,19.74
2023-04-30T12:22:35.598Z,19.76
2023-04-30T12:25:08.312Z,19.83
2023-04-30T12:27:37.313Z,20.02
2023-04-30T12:30:09.841Z,20.23
2023-04-30T12:32:44.794Z,20.31
2023-04-30T12:35:16.846Z,20.52
2023-04-30T12:37:47.223Z,20.58
2023-04-30T12:40:16.314Z,20.74
2023-04-30T12:42:47.111Z,20.83
2023-04-30T12:45:51.379Z,20.39
2023-04-30T12:48:22.282Z,20.28
2023-04-30T12:50:55.367Z,20.36
2023-04-30T12:53:26.005Z,20.20
2023-04-30T12:56:15.679Z,20.22
2023-04-30T12:58:47.694Z,20.16
2023-04-30T13:01:19.702Z,20.34
2023-04-30T13:03:48.660Z,20.29
2023-04-30T13:06:18.161Z,20.37
2023-04-30T13:08:58.067Z,20.29
2023-04-30T13:11:27.980Z,20.20
2023-04-30T13:13:57.012Z,20.19
2023-04-30T13:16:26.219Z,20.37
2023-04-30T13:18:55.437Z,20.29
2023-04-30T13:21:25.035Z,20.06
2023-04-30T13:23:58.366Z,20.08
2023-04-30T13:26:28.644Z,20.09
2023-04-30T13:28:57.385Z,19.93
2023-04-30T13:31:26.065Z,19.97
2023-04-30T13:33:55.070Z,19.99
2023-04-30T13:36:24.242Z,19.78
2023-04-30T13:38:54.587Z,19.42
2023-04-30T13:41:23.763Z,19.45
2023-04-30T13:43:52.963Z,19.43
2023-04-30T13:46:22.162Z,19.35
2023-04-30T13:48:53.353Z,19.43
2023-04-30T13:51:21.994Z,19.51
2023-04-30T13:53:50.453Z,19.52
2023-04-30T13:56:21.276Z,19.64
2023-04-30T13:58:49.839Z,19.60
2023-04-30T14:01:18.915Z,19.39
2023-04-30T14:03:49.133Z,19.14
2023-04-30T14:06:18.116Z,19.09
2023-04-30T14:08:46.785Z,18.94
2023-04-30T14:11:15.505Z,18.70
2023-04-30T14:13:45.790Z,18.52
2023-04-30T14:16:14.214Z,18.52
2023-04-30T14:18:44.056Z,18.72
2023-04-30T14:21:12.931Z,18.62
2023-04-30T14:23:41.893Z,18.33
2023-04-30T14:26:10.874Z,18.36
2023-04-30T14:28:39.326Z,18.37
2023-04-30T14:31:09.531Z,18.40
2023-04-30T14:33:38.158Z,18.31
2023-04-30T14:36:08.297Z,18.24
2023-04-30T14:38:37.116Z,18.24
2023-04-30T14:41:07.383Z,18.23
2023-04-30T14:43:36.056Z,18.26
2023-04-30T14:46:04.899Z,18.21
2023-04-30T14:48:35.031Z,18.19
2023-04-30T14:51:03.421Z,18.09
2023-04-30T14:53:32.113Z,17.94
2023-04-30T14:56:00.676Z,17.73
2023-04-30T14:58:29.265Z,17.58
2023-04-30T15:00:58.227Z,17.60
2023-04-30T15:03:26.911Z,17.60
2023-04-30T15:05:57.259Z,17.47
2023-04-30T15:08:25.820Z,17.34
2023-04-30T15:10:55.196Z,17.43
2023-04-30T15:13:23.667Z,17.45
2023-04-30T15:15:52.910Z,17.39
2023-04-30T15:18:21.953Z,17.31
2023-04-30T15:20:50.441Z,17.15
2023-04-30T15:23:21.028Z,17.19
2023-04-30T15:25:50.384Z,17.22
2023-04-30T15:28:18.887Z,17.08
2023-04-30T15:30:47.537Z,16.89
2023-04-30T15:33:16.191Z,16.80
2023-04-30T15:35:44.718Z,16.70
2023-04-30T15:38:13.639Z,16.62
2023-04-30T15:40:44.063Z,16.57
2023-04-30T15:43:12.951Z,16.52
2023-04-30T15:45:47.814Z,16.42
2023-04-30T15:48:16.905Z,16.33
2023-04-30T15:50:45.406Z,16.22
2023-04-30T15:53:13.916Z,16.11
2023-04-30T15:55:44.240Z,16.09
2023-04-30T15:58:13.237Z,15.92
2023-04-30T16:00:41.809Z,15.84
2023-04-30T16:03:10.569Z,15.69
2023-04-30T16:05:40.805Z,15.60
2023-04-30T16:08:10.572Z,15.50
2023-04-30T16:10:39.390Z,15.39
2023-04-30T16:13:09.815Z,15.26
2023-04-30T16:15:38.362Z,15.21
2023-04-30T16:18:08.041Z,15.17
2023-04-30T16:20:37.680Z,15.05
2023-04-30T16:23:06.933Z,14.97
2023-04-30T16:25:35.690Z,14.92
2023-04-30T16:28:04.311Z,14.83
2023-04-30T16:30:34.596Z,14.74
2023-04-30T16:33:03.540Z,14.67
2023-04-30T16:35:32.254Z,14.53
2023-04-30T16:38:02.752Z,14.47
2023-04-30T16:40:32.011Z,14.41
2023-04-30T16:43:00.920Z,14.34
2023-04-30T16:45:30.375Z,14.33
2023-04-30T16:48:00.653Z,14.27
2023-04-30T16:50:29.165Z,14.16
2023-04-30T16:53:00.568Z,14.07
2023-04-30T16:55:29.229Z,14.00
2023-04-30T16:57:57.953Z,13.90
2023-04-30T17:00:26.742Z,13.82
2023-04-30T17:02:55.987Z,13.75
2023-04-30T17:05:26.423Z,13.71
2023-04-30T17:07:55.380Z,13.59
2023-04-30T17:10:24.270Z,13.51
2023-04-30T17:12:52.917Z,13.45
2023-04-30T17:15:21.513Z,13.42
2023-04-30T17:17:50.137Z,13.34
2023-04-30T17:20:18.888Z,13.26
2023-04-30T17:22:49.724Z,13.19
2023-04-30T17:25:18.284Z,13.11
2023-04-30T17:27:47.548Z,13.04
2023-04-30T17:30:16.901Z,12.93
2023-04-30T17:32:45.351Z,12.83
2023-04-30T17:35:13.948Z,12.74
2023-04-30T17:37:42.646Z,12.65
2023-04-30T17:40:13.167Z,12.57
2023-04-30T17:42:41.851Z,12.46
2023-04-30T17:45:11.078Z,12.35
2023-04-30T17:47:40.664Z,12.25
2023-04-30T17:50:10.546Z,12.11
2023-04-30T17:52:39.513Z,11.98
2023-04-30T17:55:09.179Z,11.89
2023-04-30T17:57:39.266Z,11.77
2023-04-30T18:00:09.391Z,11.68
2023-04-30T18:02:44.892Z,11.58
2023-04-30T18:05:13.765Z,11.51
2023-04-30T18:07:42.525Z,11.41
2023-04-30T18:10:11.289Z,11.32
2023-04-30T18:12:41.704Z,11.23
2023-04-30T18:15:13.125Z,11.17
2023-04-30T18:17:42.454Z,11.08
2023-04-30T18:20:12.925Z,10.98
2023-04-30T18:22:43.726Z,10.90
2023-04-30T18:25:13.235Z,10.84
2023-04-30T18:27:43.381Z,10.77
2023-04-30T18:30:12.904Z,10.67
2023-04-30T18:32:42.043Z,10.61
2023-04-30T18:35:11.642Z,10.54
2023-04-30T18:37:40.283Z,10.40
2023-04-30T18:40:09.882Z,10.29
2023-04-30T18:42:38.894Z,10.24
2023-04-30T18:45:11.626Z,10.22
2023-04-30T18:47:39.990Z,10.19
2023-04-30T18:50:13.699Z,10.16
2023-04-30T18:52:42.841Z,10.13
2023-04-30T18:55:13.938Z,10.07
2023-04-30T18:57:43.799Z,9.99
2023-04-30T19:00:15.012Z,9.97
2023-04-30T19:02:44.304Z,9.90
2023-04-30T19:05:14.384Z,9.81
2023-04-30T19:07:44.919Z,9.78
2023-04-30T19:10:13.830Z,9.75
2023-04-30T19:12:44.071Z,9.74
2023-04-30T19:15:15.072Z,9.71
2023-04-30T19:17:43.764Z,9.70
2023-04-30T19:20:13.492Z,9.69
2023-04-30T19:22:42.138Z,9.70
2023-04-30T19:25:11.850Z,9.71
2023-04-30T19:27:40.665Z,9.71
2023-04-30T19:30:10.059Z,9.68
2023-04-30T19:32:40.388Z,9.64
2023-04-30T19:35:10.332Z,9.57
2023-04-30T19:37:38.867Z,9.50
2023-04-30T19:40:10.652Z,9.37
2023-04-30T19:42:39.110Z,9.31
2023-04-30T19:45:09.780Z,9.26
2023-04-30T19:47:39.900Z,9.21
2023-04-30T19:50:10.262Z,9.20
2023-04-30T19:52:38.665Z,9.20
2023-04-30T19:55:07.406Z,9.17
2023-04-30T19:57:36.626Z,9.17
2023-04-30T20:00:06.606Z,9.12
2023-04-30T20:02:39.270Z,9.06
2023-04-30T20:05:10.382Z,9.06
2023-04-30T20:07:38.744Z,9.04
2023-04-30T20:10:09.809Z,8.97
2023-04-30T20:12:38.577Z,8.98
2023-04-30T20:15:08.311Z,8.94
2023-04-30T20:17:36.882Z,8.94
2023-04-30T20:20:08.025Z,8.91
2023-04-30T20:22:36.648Z,8.86
2023-04-30T20:25:05.553Z,8.80
2023-04-30T20:27:34.569Z,8.77
2023-04-30T20:30:04.958Z,8.76
2023-04-30T20:32:34.813Z,8.75
2023-04-30T20:35:04.798Z,8.73
2023-04-30T20:37:35.171Z,8.72
2023-04-30T20:40:07.972Z,8.68
2023-04-30T20:42:36.380Z,8.65
2023-04-30T20:45:06.790Z,8.62
2023-04-30T20:47:35.876Z,8.54
2023-04-30T20:50:04.658Z,8.46
2023-04-30T20:52:35.023Z,8.41
2023-04-30T20:55:03.676Z,8.40
2023-04-30T20:57:32.502Z,8.37
2023-04-30T21:00:01.649Z,8.37
2023-04-30T21:02:30.795Z,8.38
2023-04-30T21:05:04.466Z,8.34
2023-04-30T21:07:35.602Z,8.29
2023-04-30T21:10:05.345Z,8.26
2023-04-30T21:12:34.485Z,8.20
2023-04-30T21:15:04.818Z,8.16
2023-04-30T21:17:33.313Z,8.08
2023-04-30T21:20:01.881Z,8.00
2023-04-30T21:22:32.034Z,7.92
2023-04-30T21:25:02.227Z,7.84
2023-04-30T21:27:30.798Z,7.79
2023-04-30T21:29:59.305Z,7.75
2023-04-30T21:32:27.899Z,7.71
2023-04-30T21:34:56.420Z,7.64
2023-04-30T21:37:25.241Z,7.62
2023-04-30T21:39:55.989Z,7.58
2023-04-30T21:42:27.756Z,7.49
2023-04-30T21:44:56.675Z,7.35
2023-04-30T21:47:25.438Z,7.15
2023-04-30T21:49:54.270Z,6.84
2023-04-30T21:52:22.980Z,6.71
2023-04-30T21:54:51.879Z,6.58
2023-04-30T21:57:20.685Z,6.38
2023-04-30T21:59:50.540Z,6.18
2023-04-30T22:02:24.337Z,6.03
2023-04-30T22:04:53.571Z,5.90
2023-04-30T22:07:22.461Z,5.82
2023-04-30T22:09:51.835Z,5.69
2023-04-30T22:12:22.953Z,5.56
2023-04-30T22:14:55.467Z,5.44
2023-04-30T22:17:24.952Z,5.36
2023-04-30T22:19:54.639Z,5.28
2023-04-30T22:22:23.425Z,5.21
2023-04-30T22:24:51.828Z,5.16
2023-04-30T22:27:20.363Z,5.07
2023-04-30T22:29:50.723Z,4.97
2023-04-30T22:32:20.836Z,4.91
2023-04-30T22:34:50.870Z,4.82
2023-04-30T22:37:19.419Z,4.74
2023-04-30T22:39:48.627Z,4.68
2023-04-30T22:42:17.188Z,4.59
2023-04-30T22:44:46.883Z,4.54
2023-04-30T22:47:15.525Z,4.49
2023-04-30T22:49:46.081Z,4.45
2023-04-30T22:52:15.265Z,4.43
2023-04-30T22:54:43.809Z,4.41
2023-04-30T22:57:12.297Z,4.38
2023-04-30T22:59:41.359Z,4.32
2023-04-30T23:02:10.024Z,4.27
2023-04-30T23:04:38.952Z,4.24
2023-04-30T23:07:09.202Z,4.21
2023-04-30T23:09:37.787Z,4.12
2023-04-30T23:12:07.406Z,4.07
2023-04-30T23:14:36.317Z,3.98
2023-04-30T23:17:05.134Z,3.95
2023-04-30T23:19:34.400Z,3.93
2023-04-30T23:22:04.762Z,3.90
2023-04-30T23:24:36.077Z,3.85
2023-04-30T23:27:05.058Z,3.81
2023-04-30T23:29:36.330Z,3.71
2023-04-30T23:32:05.917Z,3.64
2023-04-30T23:34:41.327Z,3.59
2023-04-30T23:37:10.803Z,3.54
2023-04-30T23:39:41.622Z,3.47
2023-04-30T23:42:10.189Z,3.42
2023-04-30T23:44:38.629Z,3.32
2023-04-30T23:47:08.435Z,3.28
2023-04-30T23:49:37.034Z,3.22
2023-04-30T23:52:06.477Z,3.16
2023-04-30T23:54:35.138Z,3.15
2023-04-30T23:57:06.287Z,3.17
2023-04-30T23:59:34.857Z,3.16
